sensor_id;sensor_type;location;lat;lon;timestamp;pressure;altitude;pressure_sealevel;temperature;humidity
41062;BME280;26812;42.662;23.352;2022-10-31T00:00:57;95373.44;;;16.68;44.12
41062;BME280;26812;42.662;23.352;2022-10-31T00:03:22;95372.41;;;16.73;43.79
41062;BME280;26812;42.662;23.352;2022-10-31T00:05:49;95380.44;;;16.82;43.65
41062;BME280;26812;42.662;23.352;2022-10-31T00:08:15;95369.25;;;16.71;43.73
41062;BME280;26812;42.662;23.352;2022-10-31T00:10:42;95381.47;;;16.77;44.19
41062;BME280;26812;42.662;23.352;2022-10-31T00:13:09;95384.63;;;16.79;43.77
41062;BME280;26812;42.662;23.352;2022-10-31T00:15:39;95370.56;;;16.77;44.00
41062;BME280;26812;42.662;23.352;2022-10-31T00:18:06;95370.03;;;16.71;44.75
41062;BME280;26812;42.662;23.352;2022-10-31T00:20:32;95373.66;;;16.75;44.82
41062;BME280;26812;42.662;23.352;2022-10-31T00:22:58;95379.63;;;16.81;44.38
41062;BME280;26812;42.662;23.352;2022-10-31T00:25:24;95386.66;;;16.82;44.96
41062;BME280;26812;42.662;23.352;2022-10-31T00:27:50;95366.81;;;16.82;44.94
41062;BME280;26812;42.662;23.352;2022-10-31T00:30:15;95352.03;;;16.67;44.41
41062;BME280;26812;42.662;23.352;2022-10-31T00:32:40;95371.97;;;16.71;44.56
41062;BME280;26812;42.662;23.352;2022-10-31T00:35:06;95359.16;;;16.59;44.48
41062;BME280;26812;42.662;23.352;2022-10-31T00:37:32;95368.56;;;16.62;45.04
41062;BME280;26812;42.662;23.352;2022-10-31T00:39:57;95369.59;;;16.69;44.84
41062;BME280;26812;42.662;23.352;2022-10-31T00:42:23;95381.81;;;16.75;45.12
41062;BME280;26812;42.662;23.352;2022-10-31T00:44:48;95363.44;;;16.72;44.86
41062;BME280;26812;42.662;23.352;2022-10-31T00:47:13;95363.34;;;16.69;44.69
41062;BME280;26812;42.662;23.352;2022-10-31T00:49:39;95363.47;;;16.60;44.79
41062;BME280;26812;42.662;23.352;2022-10-31T00:52:04;95366.28;;;16.64;45.26
41062;BME280;26812;42.662;23.352;2022-10-31T00:54:30;95368.13;;;16.60;45.37
41062;BME280;26812;42.662;23.352;2022-10-31T00:56:56;95371.09;;;16.42;45.41
41062;BME280;26812;42.662;23.352;2022-10-31T00:59:22;95370.19;;;16.38;45.87
41062;BME280;26812;42.662;23.352;2022-10-31T01:01:47;95366.81;;;16.29;45.80
41062;BME280;26812;42.662;23.352;2022-10-31T01:04:13;95371.44;;;16.41;46.00
41062;BME280;26812;42.662;23.352;2022-10-31T01:06:38;95368.75;;;16.29;46.08
41062;BME280;26812;42.662;23.352;2022-10-31T01:09:03;95358.75;;;16.33;46.00
41062;BME280;26812;42.662;23.352;2022-10-31T01:11:29;95368.38;;;16.42;45.68
41062;BME280;26812;42.662;23.352;2022-10-31T01:13:54;95372.31;;;16.45;45.78
41062;BME280;26812;42.662;23.352;2022-10-31T01:16:23;95380.25;;;16.50;45.58
41062;BME280;26812;42.662;23.352;2022-10-31T01:18:49;95376.88;;;16.53;45.73
41062;BME280;26812;42.662;23.352;2022-10-31T01:21:17;95386.72;;;16.58;45.15
41062;BME280;26812;42.662;23.352;2022-10-31T01:23:43;95382.31;;;16.53;45.60
41062;BME280;26812;42.662;23.352;2022-10-31T01:26:13;95386.13;;;16.52;45.64
41062;BME280;26812;42.662;23.352;2022-10-31T01:28:46;95386.25;;;16.43;46.00
41062;BME280;26812;42.662;23.352;2022-10-31T01:31:12;95380.38;;;16.41;45.90
41062;BME280;26812;42.662;23.352;2022-10-31T01:33:38;95396.22;;;16.52;45.94
41062;BME280;26812;42.662;23.352;2022-10-31T01:36:19;95389.22;;;15.90;47.24
41062;BME280;26812;42.662;23.352;2022-10-31T01:38:47;95402.56;;;15.82;47.01
41062;BME280;26812;42.662;23.352;2022-10-31T01:41:15;95396.91;;;15.75;47.71
41062;BME280;26812;42.662;23.352;2022-10-31T01:46:19;95394.78;;;15.36;48.19
41062;BME280;26812;42.662;23.352;2022-10-31T01:48:46;95398.63;;;15.35;48.45
41062;BME280;26812;42.662;23.352;2022-10-31T01:51:14;95394.50;;;15.29;48.67
41062;BME280;26812;42.662;23.352;2022-10-31T01:53:42;95411.84;;;15.36;48.74
41062;BME280;26812;42.662;23.352;2022-10-31T01:56:09;95395.06;;;15.22;49.09
41062;BME280;26812;42.662;23.352;2022-10-31T01:58:35;95396.97;;;15.21;49.06
41062;BME280;26812;42.662;23.352;2022-10-31T02:01:01;95390.06;;;15.24;49.19
41062;BME280;26812;42.662;23.352;2022-10-31T02:03:27;95390.19;;;15.28;49.23
41062;BME280;26812;42.662;23.352;2022-10-31T02:05:55;95386.56;;;15.23;49.47
41062;BME280;26812;42.662;23.352;2022-10-31T02:08:30;95385.09;;;15.26;49.39
41062;BME280;26812;42.662;23.352;2022-10-31T02:10:57;95383.06;;;15.23;49.52
41062;BME280;26812;42.662;23.352;2022-10-31T02:13:23;95392.00;;;15.23;49.28
41062;BME280;26812;42.662;23.352;2022-10-31T02:15:55;95380.44;;;15.14;49.51
41062;BME280;26812;42.662;23.352;2022-10-31T02:18:22;95387.91;;;15.17;49.57
41062;BME280;26812;42.662;23.352;2022-10-31T02:21:10;95390.63;;;15.17;49.91
41062;BME280;26812;42.662;23.352;2022-10-31T02:24:00;95393.22;;;15.14;50.20
41062;BME280;26812;42.662;23.352;2022-10-31T02:29:34;95382.13;;;15.07;50.35
41062;BME280;26812;42.662;23.352;2022-10-31T02:38:43;95406.22;;;15.08;50.35
41062;BME280;26812;42.662;23.352;2022-10-31T02:47:15;95426.44;;;15.11;50.63
41062;BME280;26812;42.662;23.352;2022-10-31T02:52:21;95427.84;;;14.96;51.13
41062;BME280;26812;42.662;23.352;2022-10-31T02:54:49;95427.31;;;15.03;50.96
41062;BME280;26812;42.662;23.352;2022-10-31T02:57:17;95419.81;;;15.00;51.05
41062;BME280;26812;42.662;23.352;2022-10-31T02:59:51;95415.41;;;14.95;51.07
41062;BME280;26812;42.662;23.352;2022-10-31T03:02:31;95409.84;;;14.91;51.30
41062;BME280;26812;42.662;23.352;2022-10-31T03:05:32;95430.38;;;15.01;52.04
41062;BME280;26812;42.662;23.352;2022-10-31T03:11:07;95434.00;;;15.05;51.25
41062;BME280;26812;42.662;23.352;2022-10-31T03:16:48;95425.13;;;14.96;51.34
41062;BME280;26812;42.662;23.352;2022-10-31T03:24:21;95429.75;;;14.96;51.54
41062;BME280;26812;42.662;23.352;2022-10-31T03:26:51;95429.88;;;14.99;51.83
41062;BME280;26812;42.662;23.352;2022-10-31T03:29:22;95423.81;;;15.02;51.41
41062;BME280;26812;42.662;23.352;2022-10-31T03:32:00;95428.59;;;15.05;51.75
41062;BME280;26812;42.662;23.352;2022-10-31T03:34:27;95424.41;;;15.08;51.23
41062;BME280;26812;42.662;23.352;2022-10-31T03:36:57;95441.94;;;15.10;51.14
41062;BME280;26812;42.662;23.352;2022-10-31T03:39:24;95440.28;;;15.18;50.85
41062;BME280;26812;42.662;23.352;2022-10-31T03:42:16;95442.88;;;15.14;50.94
41062;BME280;26812;42.662;23.352;2022-10-31T03:44:44;95441.06;;;15.18;51.39
41062;BME280;26812;42.662;23.352;2022-10-31T03:47:12;95442.19;;;15.17;50.91
41062;BME280;26812;42.662;23.352;2022-10-31T03:49:38;95438.78;;;15.08;51.25
41062;BME280;26812;42.662;23.352;2022-10-31T03:54:45;95450.88;;;15.11;50.97
41062;BME280;26812;42.662;23.352;2022-10-31T03:57:39;95451.41;;;15.04;51.32
41062;BME280;26812;42.662;23.352;2022-10-31T04:00:09;95453.66;;;15.02;51.53
41062;BME280;26812;42.662;23.352;2022-10-31T04:02:38;95456.63;;;14.88;51.39
41062;BME280;26812;42.662;23.352;2022-10-31T04:05:05;95462.72;;;14.85;51.71
41062;BME280;26812;42.662;23.352;2022-10-31T04:07:36;95471.19;;;14.84;51.88
41062;BME280;26812;42.662;23.352;2022-10-31T04:10:07;95467.78;;;14.66;52.52
41062;BME280;26812;42.662;23.352;2022-10-31T04:12:34;95460.38;;;14.54;53.12
41062;BME280;26812;42.662;23.352;2022-10-31T04:15:02;95465.72;;;14.63;52.92
41062;BME280;26812;42.662;23.352;2022-10-31T04:17:32;95470.88;;;14.56;53.60
41062;BME280;26812;42.662;23.352;2022-10-31T04:19:59;95480.75;;;14.60;53.00
41062;BME280;26812;42.662;23.352;2022-10-31T04:22:25;95476.63;;;14.54;53.50
41062;BME280;26812;42.662;23.352;2022-10-31T04:24:51;95448.03;;;14.27;54.15
41062;BME280;26812;42.662;23.352;2022-10-31T04:27:16;95456.44;;;14.35;54.18
41062;BME280;26812;42.662;23.352;2022-10-31T04:29:41;95471.41;;;14.49;54.04
41062;BME280;26812;42.662;23.352;2022-10-31T04:32:07;95472.66;;;14.52;54.68
41062;BME280;26812;42.662;23.352;2022-10-31T04:34:32;95469.31;;;14.17;54.97
41062;BME280;26812;42.662;23.352;2022-10-31T04:36:58;95475.75;;;13.95;56.27
41062;BME280;26812;42.662;23.352;2022-10-31T04:39:23;95455.44;;;13.72;56.39
41062;BME280;26812;42.662;23.352;2022-10-31T04:41:48;95462.44;;;13.81;56.73
41062;BME280;26812;42.662;23.352;2022-10-31T04:44:14;95471.19;;;13.87;56.44
41062;BME280;26812;42.662;23.352;2022-10-31T04:46:39;95474.06;;;13.82;55.93
41062;BME280;26812;42.662;23.352;2022-10-31T04:49:05;95467.69;;;13.86;56.60
41062;BME280;26812;42.662;23.352;2022-10-31T04:51:30;95477.81;;;13.98;56.38
41062;BME280;26812;42.662;23.352;2022-10-31T04:53:56;95486.56;;;14.12;55.89
41062;BME280;26812;42.662;23.352;2022-10-31T04:56:21;95495.47;;;14.13;55.85
41062;BME280;26812;42.662;23.352;2022-10-31T04:58:47;95490.94;;;14.25;55.78
41062;BME280;26812;42.662;23.352;2022-10-31T05:01:12;95482.06;;;14.16;55.38
41062;BME280;26812;42.662;23.352;2022-10-31T05:03:38;95487.47;;;14.16;55.63
41062;BME280;26812;42.662;23.352;2022-10-31T05:06:05;95499.53;;;14.27;55.16
41062;BME280;26812;42.662;23.352;2022-10-31T05:08:30;95485.06;;;14.23;55.73
41062;BME280;26812;42.662;23.352;2022-10-31T05:11:02;95491.97;;;14.12;56.43
41062;BME280;26812;42.662;23.352;2022-10-31T05:13:28;95497.72;;;14.11;56.95
41062;BME280;26812;42.662;23.352;2022-10-31T05:15:53;95478.91;;;14.06;56.53
41062;BME280;26812;42.662;23.352;2022-10-31T05:18:19;95498.97;;;14.13;56.28
41062;BME280;26812;42.662;23.352;2022-10-31T05:20:44;95492.44;;;14.14;56.33
41062;BME280;26812;42.662;23.352;2022-10-31T05:23:09;95511.50;;;14.26;55.82
41062;BME280;26812;42.662;23.352;2022-10-31T05:25:35;95507.34;;;14.29;55.98
41062;BME280;26812;42.662;23.352;2022-10-31T05:28:00;95503.84;;;14.28;55.82
41062;BME280;26812;42.662;23.352;2022-10-31T05:30:29;95510.25;;;14.24;56.09
41062;BME280;26812;42.662;23.352;2022-10-31T05:32:54;95515.47;;;14.29;56.22
41062;BME280;26812;42.662;23.352;2022-10-31T05:35:22;95515.63;;;14.33;55.95
41062;BME280;26812;42.662;23.352;2022-10-31T05:37:48;95527.25;;;14.33;56.01
41062;BME280;26812;42.662;23.352;2022-10-31T05:40:15;95529.97;;;14.33;56.00
41062;BME280;26812;42.662;23.352;2022-10-31T05:42:42;95524.06;;;14.31;56.41
41062;BME280;26812;42.662;23.352;2022-10-31T05:45:10;95518.78;;;14.35;56.36
41062;BME280;26812;42.662;23.352;2022-10-31T05:47:36;95525.81;;;14.36;56.08
41062;BME280;26812;42.662;23.352;2022-10-31T05:50:02;95491.69;;;13.96;56.53
41062;BME280;26812;42.662;23.352;2022-10-31T05:52:27;95529.44;;;14.10;57.29
41062;BME280;26812;42.662;23.352;2022-10-31T05:54:53;95523.50;;;14.17;57.04
41062;BME280;26812;42.662;23.352;2022-10-31T05:57:18;95536.09;;;14.21;56.77
41062;BME280;26812;42.662;23.352;2022-10-31T05:59:43;95532.91;;;14.19;57.44
41062;BME280;26812;42.662;23.352;2022-10-31T06:02:09;95534.56;;;13.94;57.94
41062;BME280;26812;42.662;23.352;2022-10-31T06:04:34;95531.81;;;14.12;57.12
41062;BME280;26812;42.662;23.352;2022-10-31T06:07:00;95537.16;;;13.82;58.33
41062;BME280;26812;42.662;23.352;2022-10-31T06:09:25;95540.78;;;13.95;58.33
41062;BME280;26812;42.662;23.352;2022-10-31T06:11:50;95538.56;;;13.88;58.21
41062;BME280;26812;42.662;23.352;2022-10-31T06:14:16;95549.88;;;13.90;58.42
41062;BME280;26812;42.662;23.352;2022-10-31T06:16:41;95553.81;;;14.02;58.27
41062;BME280;26812;42.662;23.352;2022-10-31T06:19:07;95554.72;;;14.23;57.59
41062;BME280;26812;42.662;23.352;2022-10-31T06:21:32;95559.63;;;14.47;57.41
41062;BME280;26812;42.662;23.352;2022-10-31T06:23:57;95561.91;;;14.66;56.59
41062;BME280;26812;42.662;23.352;2022-10-31T06:26:23;95571.09;;;14.82;56.41
41062;BME280;26812;42.662;23.352;2022-10-31T06:28:48;95561.63;;;14.88;55.69
41062;BME280;26812;42.662;23.352;2022-10-31T06:31:14;95572.94;;;15.19;54.79
41062;BME280;26812;42.662;23.352;2022-10-31T06:33:41;95580.69;;;15.30;54.92
41062;BME280;26812;42.662;23.352;2022-10-31T06:36:07;95580.63;;;15.17;55.01
41062;BME280;26812;42.662;23.352;2022-10-31T06:38:33;95587.44;;;15.03;55.86
41062;BME280;26812;42.662;23.352;2022-10-31T06:41:02;95574.78;;;15.28;55.11
41062;BME280;26812;42.662;23.352;2022-10-31T06:43:28;95580.97;;;15.37;54.34
41062;BME280;26812;42.662;23.352;2022-10-31T06:45:53;95578.94;;;15.75;53.77
41062;BME280;26812;42.662;23.352;2022-10-31T06:48:18;95586.47;;;16.24;52.50
41062;BME280;26812;42.662;23.352;2022-10-31T06:50:44;95587.66;;;16.59;51.24
41062;BME280;26812;42.662;23.352;2022-10-31T06:53:10;95576.69;;;16.80;51.40
41062;BME280;26812;42.662;23.352;2022-10-31T06:55:35;95567.84;;;17.07;50.46
41062;BME280;26812;42.662;23.352;2022-10-31T06:58:01;95582.06;;;17.53;49.52
41062;BME280;26812;42.662;23.352;2022-10-31T07:00:28;95588.28;;;18.06;48.23
41062;BME280;26812;42.662;23.352;2022-10-31T07:03:10;95571.81;;;18.62;46.11
41062;BME280;26812;42.662;23.352;2022-10-31T07:05:36;95582.03;;;18.97;44.85
41062;BME280;26812;42.662;23.352;2022-10-31T07:08:04;95578.78;;;19.07;44.25
41062;BME280;26812;42.662;23.352;2022-10-31T07:10:32;95587.91;;;19.14;44.66
41062;BME280;26812;42.662;23.352;2022-10-31T07:12:59;95571.00;;;19.09;44.61
41062;BME280;26812;42.662;23.352;2022-10-31T07:15:27;95584.13;;;19.19;43.81
41062;BME280;26812;42.662;23.352;2022-10-31T07:17:53;95568.72;;;19.46;43.43
41062;BME280;26812;42.662;23.352;2022-10-31T07:20:19;95574.16;;;20.20;42.31
41062;BME280;26812;42.662;23.352;2022-10-31T07:22:45;95567.06;;;21.06;40.31
41062;BME280;26812;42.662;23.352;2022-10-31T07:25:10;95566.84;;;21.15;40.06
41062;BME280;26812;42.662;23.352;2022-10-31T07:27:40;95563.25;;;22.68;37.46
41062;BME280;26812;42.662;23.352;2022-10-31T07:30:07;95564.16;;;23.89;35.28
41062;BME280;26812;42.662;23.352;2022-10-31T07:32:45;95549.47;;;25.04;32.68
41062;BME280;26812;42.662;23.352;2022-10-31T07:35:14;95559.59;;;25.89;31.27
41062;BME280;26812;42.662;23.352;2022-10-31T07:37:40;95559.88;;;26.85;29.77
41062;BME280;26812;42.662;23.352;2022-10-31T07:40:06;95566.91;;;27.45;28.65
41062;BME280;26812;42.662;23.352;2022-10-31T07:42:40;95565.31;;;27.89;27.74
41062;BME280;26812;42.662;23.352;2022-10-31T07:45:08;95567.44;;;28.69;26.93
41062;BME280;26812;42.662;23.352;2022-10-31T07:47:41;95557.31;;;29.60;25.46
41062;BME280;26812;42.662;23.352;2022-10-31T07:50:08;95551.97;;;30.32;24.38
41062;BME280;26812;42.662;23.352;2022-10-31T07:52:34;95554.56;;;28.29;26.04
41062;BME280;26812;42.662;23.352;2022-10-31T07:55:00;95557.69;;;27.63;27.61
41062;BME280;26812;42.662;23.352;2022-10-31T07:57:25;95567.50;;;27.22;28.53
41062;BME280;26812;42.662;23.352;2022-10-31T07:59:51;95554.41;;;26.78;28.84
41062;BME280;26812;42.662;23.352;2022-10-31T08:02:16;95562.03;;;25.33;30.78
41062;BME280;26812;42.662;23.352;2022-10-31T08:04:41;95557.75;;;25.00;31.87
41062;BME280;26812;42.662;23.352;2022-10-31T08:07:07;95555.34;;;25.42;31.15
41062;BME280;26812;42.662;23.352;2022-10-31T08:09:32;95563.63;;;25.38;31.47
41062;BME280;26812;42.662;23.352;2022-10-31T08:11:58;95564.41;;;25.49;31.49
41062;BME280;26812;42.662;23.352;2022-10-31T08:14:23;95566.16;;;26.23;30.30
41062;BME280;26812;42.662;23.352;2022-10-31T08:16:48;95553.72;;;27.19;28.65
41062;BME280;26812;42.662;23.352;2022-10-31T08:19:14;95552.53;;;27.99;27.79
41062;BME280;26812;42.662;23.352;2022-10-31T08:21:39;95558.94;;;28.57;27.03
41062;BME280;26812;42.662;23.352;2022-10-31T08:24:05;95553.09;;;28.78;26.40
41062;BME280;26812;42.662;23.352;2022-10-31T08:26:31;95559.94;;;28.97;25.95
41062;BME280;26812;42.662;23.352;2022-10-31T08:28:56;95567.56;;;28.62;26.18
41062;BME280;26812;42.662;23.352;2022-10-31T08:31:22;95569.56;;;29.16;25.57
41062;BME280;26812;42.662;23.352;2022-10-31T08:33:48;95551.47;;;29.54;25.15
41062;BME280;26812;42.662;23.352;2022-10-31T08:36:13;95563.50;;;30.11;24.83
41062;BME280;26812;42.662;23.352;2022-10-31T08:38:39;95560.84;;;30.63;24.33
41062;BME280;26812;42.662;23.352;2022-10-31T08:41:04;95560.00;;;31.15;24.22
41062;BME280;26812;42.662;23.352;2022-10-31T08:43:30;95556.06;;;31.32;23.44
41062;BME280;26812;42.662;23.352;2022-10-31T08:45:56;95546.28;;;31.40;23.23
41062;BME280;26812;42.662;23.352;2022-10-31T08:48:22;95531.16;;;30.01;24.81
41062;BME280;26812;42.662;23.352;2022-10-31T08:50:47;95557.56;;;30.48;24.15
41062;BME280;26812;42.662;23.352;2022-10-31T08:53:15;95541.56;;;29.30;25.23
41062;BME280;26812;42.662;23.352;2022-10-31T08:55:41;95549.75;;;29.37;26.20
41062;BME280;26812;42.662;23.352;2022-10-31T08:58:11;95535.75;;;28.70;26.53
41062;BME280;26812;42.662;23.352;2022-10-31T09:00:39;95548.75;;;29.51;25.36
41062;BME280;26812;42.662;23.352;2022-10-31T09:03:28;95548.88;;;30.26;24.43
41062;BME280;26812;42.662;23.352;2022-10-31T09:05:59;95544.47;;;29.23;25.92
41062;BME280;26812;42.662;23.352;2022-10-31T09:08:26;95556.81;;;28.95;26.30
41062;BME280;26812;42.662;23.352;2022-10-31T09:10:52;95555.47;;;28.19;27.20
41062;BME280;26812;42.662;23.352;2022-10-31T09:13:21;95546.63;;;27.63;27.41
41062;BME280;26812;42.662;23.352;2022-10-31T09:15:48;95549.47;;;27.48;28.15
41062;BME280;26812;42.662;23.352;2022-10-31T09:18:16;95549.72;;;27.27;28.62
41062;BME280;26812;42.662;23.352;2022-10-31T09:20:42;95536.13;;;26.99;29.08
41062;BME280;26812;42.662;23.352;2022-10-31T09:23:17;95553.66;;;27.26;29.07
41062;BME280;26812;42.662;23.352;2022-10-31T09:25:43;95543.09;;;28.57;26.80
41062;BME280;26812;42.662;23.352;2022-10-31T09:28:10;95529.41;;;29.67;25.94
41062;BME280;26812;42.662;23.352;2022-10-31T09:30:37;95538.16;;;30.09;24.62
41062;BME280;26812;42.662;23.352;2022-10-31T09:33:09;95539.06;;;28.89;26.10
41062;BME280;26812;42.662;23.352;2022-10-31T09:35:35;95535.84;;;30.59;24.58
41062;BME280;26812;42.662;23.352;2022-10-31T09:38:14;95542.09;;;30.83;24.18
41062;BME280;26812;42.662;23.352;2022-10-31T09:40:41;95548.28;;;31.56;23.41
41062;BME280;26812;42.662;23.352;2022-10-31T09:43:32;95549.28;;;32.36;22.25
41062;BME280;26812;42.662;23.352;2022-10-31T09:52:27;95540.81;;;32.65;21.81
41062;BME280;26812;42.662;23.352;2022-10-31T09:54:57;95527.28;;;34.84;19.63
41062;BME280;26812;42.662;23.352;2022-10-31T09:57:27;95528.75;;;35.07;19.17
41062;BME280;26812;42.662;23.352;2022-10-31T09:59:53;95509.94;;;34.14;20.15
41062;BME280;26812;42.662;23.352;2022-10-31T10:02:49;95526.97;;;33.25;20.59
41062;BME280;26812;42.662;23.352;2022-10-31T10:05:29;95518.06;;;33.05;20.87
41062;BME280;26812;42.662;23.352;2022-10-31T10:08:08;95517.72;;;33.98;20.35
41062;BME280;26812;42.662;23.352;2022-10-31T10:24:27;95494.78;;;39.92;14.89
41062;BME280;26812;42.662;23.352;2022-10-31T10:30:16;95464.28;;;42.30;12.99
41062;BME280;26812;42.662;23.352;2022-10-31T10:32:59;95471.78;;;42.66;12.54
41062;BME280;26812;42.662;23.352;2022-10-31T10:35:39;95461.22;;;42.56;12.20
41062;BME280;26812;42.662;23.352;2022-10-31T10:41:21;95461.91;;;36.09;16.72
41062;BME280;26812;42.662;23.352;2022-10-31T10:43:49;95445.75;;;35.95;17.46
41062;BME280;26812;42.662;23.352;2022-10-31T10:49:28;95457.06;;;36.70;16.14
41062;BME280;26812;42.662;23.352;2022-10-31T10:57:56;95449.50;;;35.46;17.33
41062;BME280;26812;42.662;23.352;2022-10-31T11:00:29;95431.56;;;35.99;17.32
41062;BME280;26812;42.662;23.352;2022-10-31T11:02:55;95448.03;;;36.33;16.71
41062;BME280;26812;42.662;23.352;2022-10-31T11:07:53;95444.47;;;35.14;18.29
41062;BME280;26812;42.662;23.352;2022-10-31T11:10:22;95440.03;;;35.53;17.41
41062;BME280;26812;42.662;23.352;2022-10-31T11:13:14;95446.91;;;33.22;19.91
41062;BME280;26812;42.662;23.352;2022-10-31T11:16:10;95441.41;;;32.97;19.73
41062;BME280;26812;42.662;23.352;2022-10-31T11:18:45;95425.16;;;33.17;19.59
41062;BME280;26812;42.662;23.352;2022-10-31T11:21:27;95434.38;;;35.26;17.83
41062;BME280;26812;42.662;23.352;2022-10-31T11:24:23;95423.25;;;36.32;16.62
41062;BME280;26812;42.662;23.352;2022-10-31T11:26:51;95424.09;;;35.77;17.15
41062;BME280;26812;42.662;23.352;2022-10-31T11:29:22;95414.03;;;35.53;17.41
41062;BME280;26812;42.662;23.352;2022-10-31T11:31:51;95408.53;;;33.48;19.62
41062;BME280;26812;42.662;23.352;2022-10-31T11:34:36;95417.34;;;34.12;18.98
41062;BME280;26812;42.662;23.352;2022-10-31T11:37:09;95421.78;;;35.39;17.91
41062;BME280;26812;42.662;23.352;2022-10-31T11:39:40;95412.09;;;36.14;16.55
41062;BME280;26812;42.662;23.352;2022-10-31T11:42:06;95414.06;;;36.31;16.94
41062;BME280;26812;42.662;23.352;2022-10-31T11:44:33;95397.94;;;35.16;17.54
41062;BME280;26812;42.662;23.352;2022-10-31T11:47:03;95400.44;;;34.96;17.85
41062;BME280;26812;42.662;23.352;2022-10-31T11:49:40;95403.97;;;34.38;18.60
41062;BME280;26812;42.662;23.352;2022-10-31T11:57:31;95393.00;;;35.39;17.47
41062;BME280;26812;42.662;23.352;2022-10-31T11:59:59;95391.22;;;36.05;17.98
41062;BME280;26812;42.662;23.352;2022-10-31T12:02:26;95392.31;;;37.07;16.53
41062;BME280;26812;42.662;23.352;2022-10-31T12:05:01;95380.19;;;37.93;15.78
41062;BME280;26812;42.662;23.352;2022-10-31T12:07:28;95372.03;;;37.66;15.30
41062;BME280;26812;42.662;23.352;2022-10-31T12:09:53;95385.75;;;36.53;16.46
41062;BME280;26812;42.662;23.352;2022-10-31T12:12:51;95390.06;;;36.30;17.99
41062;BME280;26812;42.662;23.352;2022-10-31T12:15:36;95383.50;;;34.19;18.55
41062;BME280;26812;42.662;23.352;2022-10-31T12:48:42;95375.13;;;32.88;20.92
41062;BME280;26812;42.662;23.352;2022-10-31T12:57:19;95378.19;;;32.56;20.90
41062;BME280;26812;42.662;23.352;2022-10-31T12:59:49;95361.53;;;32.78;22.19
41062;BME280;26812;42.662;23.352;2022-10-31T13:05:05;95334.50;;;32.74;20.44
41062;BME280;26812;42.662;23.352;2022-10-31T13:07:47;95383.34;;;33.39;21.30
41062;BME280;26812;42.662;23.352;2022-10-31T13:16:16;95382.03;;;33.53;20.03
41062;BME280;26812;42.662;23.352;2022-10-31T13:18:55;95376.84;;;33.08;19.62
41062;BME280;26812;42.662;23.352;2022-10-31T13:21:25;95377.06;;;32.53;21.44
41062;BME280;26812;42.662;23.352;2022-10-31T13:23:52;95371.69;;;32.08;21.26
41062;BME280;26812;42.662;23.352;2022-10-31T13:26:21;95380.19;;;32.04;20.74
41062;BME280;26812;42.662;23.352;2022-10-31T13:28:59;95377.63;;;33.08;20.36
41062;BME280;26812;42.662;23.352;2022-10-31T13:31:27;95377.84;;;34.32;18.79
41062;BME280;26812;42.662;23.352;2022-10-31T13:34:04;95375.13;;;35.55;17.29
41062;BME280;26812;42.662;23.352;2022-10-31T13:36:41;95375.69;;;36.37;16.58
41062;BME280;26812;42.662;23.352;2022-10-31T13:44:42;95369.84;;;33.38;19.41
41062;BME280;26812;42.662;23.352;2022-10-31T13:47:40;95373.50;;;33.34;18.92
41062;BME280;26812;42.662;23.352;2022-10-31T13:50:32;95371.03;;;33.02;19.44
41062;BME280;26812;42.662;23.352;2022-10-31T13:53:12;95373.81;;;32.80;19.48
41062;BME280;26812;42.662;23.352;2022-10-31T13:55:47;95381.97;;;32.62;19.80
41062;BME280;26812;42.662;23.352;2022-10-31T13:58:25;95377.75;;;32.32;20.28
41062;BME280;26812;42.662;23.352;2022-10-31T14:03:36;95377.31;;;31.25;21.35
41062;BME280;26812;42.662;23.352;2022-10-31T14:06:03;95378.25;;;30.73;21.43
41062;BME280;26812;42.662;23.352;2022-10-31T14:08:33;95353.66;;;29.30;23.34
41062;BME280;26812;42.662;23.352;2022-10-31T14:10:59;95374.03;;;27.12;26.53
41062;BME280;26812;42.662;23.352;2022-10-31T14:13:43;95383.81;;;27.20;26.54
41062;BME280;26812;42.662;23.352;2022-10-31T14:16:24;95377.78;;;26.50;27.56
41062;BME280;26812;42.662;23.352;2022-10-31T14:19:04;95367.81;;;26.11;28.38
41062;BME280;26812;42.662;23.352;2022-10-31T14:21:38;95371.09;;;25.88;28.77
41062;BME280;26812;42.662;23.352;2022-10-31T14:29:31;95387.56;;;26.58;27.74
41062;BME280;26812;42.662;23.352;2022-10-31T14:32:05;95396.22;;;26.64;28.00
41062;BME280;26812;42.662;23.352;2022-10-31T14:34:51;95390.22;;;26.20;28.36
41062;BME280;26812;42.662;23.352;2022-10-31T14:40:27;95388.59;;;25.60;29.34
41062;BME280;26812;42.662;23.352;2022-10-31T14:46:00;95393.22;;;25.85;29.48
41062;BME280;26812;42.662;23.352;2022-10-31T14:51:20;95391.97;;;24.91;30.55
41062;BME280;26812;42.662;23.352;2022-10-31T14:53:51;95390.44;;;24.62;31.58
41062;BME280;26812;42.662;23.352;2022-10-31T14:56:21;95392.41;;;24.40;33.48
41062;BME280;26812;42.662;23.352;2022-10-31T14:58:48;95377.03;;;24.14;32.71
41062;BME280;26812;42.662;23.352;2022-10-31T15:03:46;95395.06;;;23.65;34.22
41062;BME280;26812;42.662;23.352;2022-10-31T15:06:14;95401.13;;;23.19;34.94
41062;BME280;26812;42.662;23.352;2022-10-31T15:08:50;95394.72;;;22.94;35.54
41062;BME280;26812;42.662;23.352;2022-10-31T15:11:23;95384.00;;;22.75;35.66
41062;BME280;26812;42.662;23.352;2022-10-31T15:16:24;95393.53;;;22.95;35.45
41062;BME280;26812;42.662;23.352;2022-10-31T15:18:58;95405.75;;;22.98;35.21
41062;BME280;26812;42.662;23.352;2022-10-31T15:21:25;95409.69;;;22.97;35.04
41062;BME280;26812;42.662;23.352;2022-10-31T15:23:55;95402.06;;;22.79;36.07
41062;BME280;26812;42.662;23.352;2022-10-31T15:26:24;95418.13;;;22.74;35.57
41062;BME280;26812;42.662;23.352;2022-10-31T15:28:59;95396.03;;;22.56;35.89
41062;BME280;26812;42.662;23.352;2022-10-31T15:31:25;95413.28;;;22.56;36.00
41062;BME280;26812;42.662;23.352;2022-10-31T15:33:51;95412.00;;;22.40;37.38